Time;durP1;ratioP1;P1;durP2;ratioP2;P2;SDS_P1;SDS_P2;PMS_P1;PMS_P2;Temp;Humidity;BMP_temperature;BMP_pressure;BME280_temperature;BME280_humidity;BME280_pressure;Samples;Min_cycle;Max_cycle;Signal;HPM_P1;HPM_P2
2021/10/31 00:00:05;;;;;;;23.40;15.70;;;282.20;2278.40;;;;;;5132053;27;20024;-74
2021/10/31 00:02:31;;;;;;;22.35;15.35;;;282.30;2278.40;;;;;;5129934;27;20510;-74
2021/10/31 00:04:57;;;;;;;25.25;16.35;;;282.20;2278.40;;;;;;5133603;27;20051;-75
2021/10/31 00:07:23;;;;;;;25.30;16.77;;;282.20;2278.40;;;;;;5132990;27;20279;-74
2021/10/31 00:09:48;;;;;;;29.17;16.75;;;282.20;2278.40;;;;;;5129630;27;20468;-74
2021/10/31 00:12:14;;;;;;;24.55;17.20;;;282.20;2278.40;;;;;;5127828;27;20019;-74
2021/10/31 00:14:41;;;;;;;26.90;17.67;;;282.20;2278.40;;;;;;5129078;27;20039;-74
2021/10/31 00:17:07;;;;;;;21.83;16.92;;;282.20;2278.40;;;;;;5127677;27;20035;-74
2021/10/31 00:19:32;;;;;;;25.55;16.80;;;282.30;2278.40;;;;;;5121837;27;20063;-74
2021/10/31 00:21:59;;;;;;;24.55;15.02;;;282.20;2278.40;;;;;;5128034;27;20081;-75
2021/10/31 00:24:25;;;;;;;21.15;14.73;;;282.30;2278.40;;;;;;5128134;27;20048;-74
2021/10/31 00:26:51;;;;;;;23.73;15.50;;;282.30;2278.40;;;;;;5126074;27;20028;-75
2021/10/31 00:29:17;;;;;;;24.83;15.68;;;282.30;2278.40;;;;;;5129830;27;20027;-75
2021/10/31 00:31:43;;;;;;;24.35;17.05;;;282.20;2278.40;;;;;;5131042;27;20953;-75
2021/10/31 00:34:10;;;;;;;24.02;16.83;;;282.30;2278.40;;;;;;5125663;27;20164;-75
2021/10/31 00:36:36;;;;;;;25.67;16.65;;;282.20;2278.40;;;;;;5126664;27;20368;-75
2021/10/31 00:39:06;;;;;;;21.80;15.95;;;282.20;2278.40;;;;;;5127736;27;20015;-75
2021/10/31 00:41:33;;;;;;;24.02;15.43;;;282.10;2278.40;;;;;;5126455;27;20035;-75
2021/10/31 00:43:58;;;;;;;23.52;16.42;;;282.10;2278.40;;;;;;5122888;27;20019;-75
2021/10/31 00:46:24;;;;;;;25.75;17.38;;;282.10;2278.40;;;;;;5121905;27;20089;-75
2021/10/31 00:48:50;;;;;;;25.00;17.27;;;282.10;2278.40;;;;;;5129812;27;20042;-75
2021/10/31 00:51:16;;;;;;;23.05;15.13;;;282.10;2278.40;;;;;;5130727;27;20506;-76
2021/10/31 00:53:43;;;;;;;24.55;16.13;;;282.00;2278.40;;;;;;5128926;27;20077;-76
2021/10/31 00:56:10;;;;;;;24.05;16.17;;;282.00;2278.40;;;;;;5135533;27;20027;-74
2021/10/31 00:58:37;;;;;;;30.67;17.67;;;282.00;2278.40;;;;;;5133811;27;20069;-75
2021/10/31 01:01:04;;;;;;;23.70;16.30;;;282.00;2278.40;;;;;;5134528;27;20376;-75
2021/10/31 01:03:30;;;;;;;29.48;16.73;;;282.00;2278.40;;;;;;5134237;27;20109;-75
2021/10/31 01:06:34;;;;;;;23.70;16.00;;;281.90;2278.40;;;;;;5128709;27;20842;-75
2021/10/31 01:09:24;;;;;;;24.75;15.15;;;281.90;2278.40;;;;;;5135319;27;20023;-75
2021/10/31 01:11:58;;;;;;;24.67;16.40;;;281.90;2278.40;;;;;;5071466;28;20063;-75
2021/10/31 01:14:53;;;;;;;25.60;17.25;;;281.90;2278.40;;;;;;5070536;28;20078;-75
2021/10/31 01:17:41;;;;;;;26.27;17.40;;;281.80;2278.40;;;;;;5054948;28;20036;-75
2021/10/31 01:20:16;;;;;;;25.52;16.77;;;281.80;2278.40;;;;;;5071998;28;20471;-75
2021/10/31 01:22:57;;;;;;;24.90;16.13;;;281.70;2278.40;;;;;;5054676;28;20056;-75
2021/10/31 01:25:28;;;;;;;23.13;16.48;;;281.70;2278.40;;;;;;5055053;28;20028;-76
2021/10/31 01:27:57;;;;;;;26.55;17.05;;;281.70;2278.40;;;;;;5071431;28;20400;-77
2021/10/31 01:30:50;;;;;;;26.27;18.60;;;281.70;2278.40;;;;;;5072001;28;20067;-76
2021/10/31 01:33:54;;;;;;;24.40;18.00;;;281.70;2278.40;;;;;;5055007;28;20021;-76
2021/10/31 01:36:49;;;;;;;26.80;16.58;;;281.70;2278.40;;;;;;4972684;28;20066;-76
2021/10/31 01:39:21;;;;;;;29.55;17.63;;;281.70;2278.40;;;;;;4972283;28;20042;-75
2021/10/31 01:42:00;;;;;;;26.83;18.00;;;281.70;2278.40;;;;;;4977125;28;20084;-76
2021/10/31 01:45:02;;;;;;;25.45;17.48;;;281.70;2278.40;;;;;;4957039;28;20400;-76
2021/10/31 01:47:58;;;;;;;28.00;18.23;;;281.70;2278.40;;;;;;4962413;28;20050;-76
2021/10/31 01:50:45;;;;;;;26.85;17.77;;;281.70;2278.40;;;;;;5014550;28;20033;-75
2021/10/31 01:53:47;;;;;;;24.88;17.05;;;281.60;2278.40;;;;;;5023625;28;20025;-75
2021/10/31 01:56:19;;;;;;;24.80;18.55;;;281.70;2278.40;;;;;;5039683;28;20032;-75
2021/10/31 01:58:51;;;;;;;28.42;18.23;;;281.60;2278.40;;;;;;5022044;28;20546;-76
2021/10/31 02:01:19;;;;;;;28.30;18.48;;;281.60;2278.40;;;;;;5011415;28;20034;-76
2021/10/31 02:03:47;;;;;;;25.70;17.80;;;281.60;2278.40;;;;;;5031981;28;20449;-76
2021/10/31 02:06:13;;;;;;;21.20;16.70;;;256.90;2252.80;;;;;;5008279;28;20030;-76
2021/10/31 02:08:41;;;;;;;27.10;18.17;;;256.90;2252.80;;;;;;5020720;28;20132;-76
2021/10/31 02:11:10;;;;;;;29.55;18.80;;;256.90;2252.80;;;;;;5024949;28;20032;-76
2021/10/31 02:13:40;;;;;;;26.52;17.52;;;256.90;2252.80;;;;;;5091105;28;20016;-76
2021/10/31 02:16:06;;;;;;;32.97;19.60;;;256.90;2252.80;;;;;;5078591;28;20032;-76
2021/10/31 02:18:33;;;;;;;24.77;18.17;;;256.90;2252.80;;;;;;5069694;28;20087;-76
2021/10/31 02:21:01;;;;;;;31.15;19.23;;;256.90;2252.80;;;;;;5074490;28;20028;-76
2021/10/31 02:23:29;;;;;;;26.98;18.25;;;256.90;2252.80;;;;;;5092726;27;20042;-76
2021/10/31 02:25:54;;;;;;;26.02;17.60;;;256.90;2252.80;;;;;;5134397;27;20015;-76
2021/10/31 02:28:20;;;;;;;29.17;18.05;;;256.90;2252.80;;;;;;5133171;27;20038;-76
2021/10/31 02:30:48;;;;;;;25.52;17.23;;;256.90;2252.80;;;;;;5132180;27;20031;-76
2021/10/31 02:33:14;;;;;;;31.10;18.73;;;256.90;2252.80;;;;;;5129202;27;20027;-75
2021/10/31 02:35:40;;;;;;;28.63;18.08;;;256.90;2252.80;;;;;;5131467;27;20020;-75
2021/10/31 02:38:07;;;;;;;25.65;16.60;;;256.80;2252.80;;;;;;5132093;27;20019;-75
2021/10/31 02:40:35;;;;;;;25.73;16.77;;;256.80;2252.80;;;;;;5131820;27;20026;-76
2021/10/31 02:43:05;;;;;;;23.85;17.15;;;256.80;2252.80;;;;;;5132613;27;20072;-75
2021/10/31 02:45:31;;;;;;;27.50;17.70;;;256.80;2252.80;;;;;;5132561;27;20031;-76
2021/10/31 02:48:04;;;;;;;23.55;16.88;;;256.80;2252.80;;;;;;5133956;27;20049;-75
2021/10/31 02:50:38;;;;;;;30.52;19.35;;;256.80;2252.80;;;;;;5122202;27;20406;-75
2021/10/31 02:53:28;;;;;;;24.17;17.13;;;256.80;2252.80;;;;;;5133368;27;20023;-75
2021/10/31 02:56:09;;;;;;;28.02;19.25;;;256.70;2252.80;;;;;;5127386;27;20429;-76
2021/10/31 02:58:53;;;;;;;28.42;17.70;;;256.70;2252.80;;;;;;5133650;27;20026;-75
2021/10/31 03:01:19;;;;;;;25.02;17.15;;;256.60;2252.80;;;;;;5133633;27;20413;-75
2021/10/31 03:03:46;;;;;;;27.60;18.85;;;256.60;2252.80;;;;;;5132121;27;20542;-75
2021/10/31 03:06:12;;;;;;;26.15;17.67;;;256.60;2252.80;;;;;;5132126;27;20039;-75
2021/10/31 03:08:39;;;;;;;23.58;17.08;;;256.50;2252.80;;;;;;5131708;27;20030;-75
2021/10/31 03:11:08;;;;;;;23.63;16.23;;;256.50;2252.80;;;;;;5131793;27;20023;-76
2021/10/31 03:13:36;;;;;;;25.80;18.05;;;256.50;2252.80;;;;;;5133468;27;20023;-76
2021/10/31 03:16:01;;;;;;;22.95;16.63;;;256.50;2252.80;;;;;;5133414;27;20452;-75
2021/10/31 03:18:27;;;;;;;25.70;17.60;;;256.50;2252.80;;;;;;5131987;27;20067;-76
2021/10/31 03:20:53;;;;;;;25.38;16.52;;;256.50;2252.80;;;;;;5117951;27;20134;-76
2021/10/31 03:23:19;;;;;;;22.88;16.13;;;256.50;2252.80;;;;;;5114430;28;20023;-75
2021/10/31 03:25:46;;;;;;;23.70;16.38;;;256.50;2252.80;;;;;;5122275;27;20024;-75
2021/10/31 03:28:12;;;;;;;24.77;16.95;;;256.40;2252.80;;;;;;5128320;27;20027;-75
2021/10/31 03:30:38;;;;;;;26.40;15.95;;;256.40;2252.80;;;;;;5131936;27;20140;-76
2021/10/31 03:33:04;;;;;;;27.73;18.27;;;256.40;2252.80;;;;;;5131125;27;20027;-76
2021/10/31 03:35:29;;;;;;;26.98;16.73;;;256.40;2252.80;;;;;;5133447;28;20012;-75
2021/10/31 03:37:55;;;;;;;26.00;15.52;;;256.30;2252.80;;;;;;5129145;28;20026;-75
2021/10/31 03:40:22;;;;;;;24.30;16.60;;;256.30;2252.80;;;;;;5131479;28;20027;-75
2021/10/31 03:42:48;;;;;;;25.92;18.05;;;256.30;2252.80;;;;;;5118986;28;20024;-75
2021/10/31 03:45:15;;;;;;;24.77;16.08;;;256.20;2252.80;;;;;;5119130;28;20031;-75
2021/10/31 03:47:48;;;;;;;24.73;16.50;;;256.20;2252.80;;;;;;5133017;27;20072;-75
2021/10/31 03:50:21;;;;;;;24.52;17.48;;;256.20;2252.80;;;;;;5131804;28;20390;-75
2021/10/31 03:52:48;;;;;;;28.55;17.60;;;256.10;2252.80;;;;;;5124437;27;20529;-76
2021/10/31 03:55:15;;;;;;;28.27;18.17;;;256.10;2252.80;;;;;;5133081;27;20489;-76
2021/10/31 03:57:41;;;;;;;25.60;16.13;;;256.10;2252.80;;;;;;5131617;27;20024;-76
2021/10/31 04:00:09;;;;;;;26.60;16.85;;;256.00;2252.80;;;;;;5123692;28;20114;-77
2021/10/31 04:02:37;;;;;;;27.90;18.25;;;256.00;2252.80;;;;;;5130006;27;20037;-77
2021/10/31 04:05:04;;;;;;;25.98;17.95;;;231.30;2252.80;;;;;;5120101;27;20027;-76
2021/10/31 04:07:30;;;;;;;28.05;17.65;;;231.30;2252.80;;;;;;5131356;27;20019;-75
2021/10/31 04:09:56;;;;;;;24.15;15.93;;;231.20;2252.80;;;;;;5128623;27;20448;-76
2021/10/31 04:12:22;;;;;;;23.70;16.75;;;231.20;2252.80;;;;;;5125924;28;20024;-77
2021/10/31 04:14:48;;;;;;;24.05;16.90;;;231.10;2252.80;;;;;;5130172;27;20071;-76
2021/10/31 04:17:13;;;;;;;23.67;16.40;;;231.20;2252.80;;;;;;5131169;27;20024;-76
2021/10/31 04:19:39;;;;;;;27.50;17.35;;;231.10;2252.80;;;;;;5126453;28;20059;-78
2021/10/31 04:22:05;;;;;;;27.73;18.30;;;231.20;2252.80;;;;;;5131474;28;20042;-77
2021/10/31 04:24:32;;;;;;;28.42;16.67;;;231.10;2252.80;;;;;;5121966;28;20034;-78
2021/10/31 04:27:02;;;;;;;22.65;16.88;;;231.10;2252.80;;;;;;5129641;27;20028;-78
2021/10/31 04:29:28;;;;;;;25.40;16.65;;;231.10;2252.80;;;;;;5131328;27;20580;-77
2021/10/31 04:31:54;;;;;;;23.42;17.13;;;231.00;2252.80;;;;;;5124478;28;20035;-76
2021/10/31 04:34:21;;;;;;;25.10;16.80;;;231.10;2252.80;;;;;;5124628;27;20024;-77
2021/10/31 04:36:47;;;;;;;25.38;15.75;;;231.00;2252.80;;;;;;5127940;27;20477;-76
2021/10/31 04:39:13;;;;;;;27.50;17.15;;;231.00;2252.80;;;;;;5121596;27;20032;-76
2021/10/31 04:41:41;;;;;;;24.95;16.25;;;231.00;2252.80;;;;;;5123619;27;20027;-76
2021/10/31 04:44:07;;;;;;;24.45;16.65;;;230.90;2252.80;;;;;;5131920;27;20471;-76
2021/10/31 04:46:32;;;;;;;28.48;18.40;;;230.90;2252.80;;;;;;5134171;27;20092;-77
2021/10/31 04:48:58;;;;;;;26.15;17.45;;;230.90;2252.80;;;;;;5133694;27;20031;-76
2021/10/31 04:51:24;;;;;;;27.00;16.98;;;230.90;2252.80;;;;;;5135373;27;20027;-76
2021/10/31 04:53:50;;;;;;;25.85;16.80;;;230.90;2252.80;;;;;;5135248;27;20471;-76
2021/10/31 04:56:16;;;;;;;31.73;18.85;;;230.80;2252.80;;;;;;5135731;27;20479;-76
2021/10/31 04:58:42;;;;;;;26.30;16.83;;;230.80;2252.80;;;;;;5135135;27;20023;-77
2021/10/31 05:01:08;;;;;;;25.73;16.95;;;230.80;2252.80;;;;;;5121054;27;20083;-76
2021/10/31 05:03:34;;;;;;;27.05;17.95;;;230.70;2252.80;;;;;;5133858;27;20081;-77
2021/10/31 05:06:00;;;;;;;25.15;16.10;;;230.70;2252.80;;;;;;5134158;27;20023;-77
2021/10/31 05:08:26;;;;;;;24.35;16.17;;;230.70;2252.80;;;;;;5136018;27;20054;-77
2021/10/31 05:10:53;;;;;;;28.90;18.23;;;230.70;2252.80;;;;;;5120183;27;20063;-77
2021/10/31 05:13:19;;;;;;;32.45;19.00;;;230.60;2252.80;;;;;;5135677;27;20023;-77
2021/10/31 05:15:45;;;;;;;26.67;18.00;;;230.60;2252.80;;;;;;5130175;27;20060;-77
2021/10/31 05:18:11;;;;;;;31.13;18.80;;;230.50;2252.80;;;;;;5133678;27;20047;-76
2021/10/31 05:20:37;;;;;;;25.90;17.23;;;230.50;2252.80;;;;;;5135499;27;20058;-77
2021/10/31 05:23:03;;;;;;;26.48;17.85;;;230.50;2252.80;;;;;;5135942;27;20087;-77
2021/10/31 05:25:29;;;;;;;27.55;18.60;;;230.50;2252.80;;;;;;5134945;27;20169;-77
2021/10/31 05:27:55;;;;;;;27.05;17.27;;;230.40;2252.80;;;;;;5134446;27;20050;-76
2021/10/31 05:30:20;;;;;;;28.92;19.08;;;230.50;2252.80;;;;;;5130879;27;20030;-77
2021/10/31 05:32:47;;;;;;;24.55;15.23;;;230.50;2252.80;;;;;;5135485;27;20021;-76
2021/10/31 05:35:13;;;;;;;23.30;17.27;;;230.50;2252.80;;;;;;5131014;27;20540;-76
2021/10/31 05:37:45;;;;;;;27.45;17.63;;;230.60;2252.80;;;;;;5135450;27;20023;-76
2021/10/31 05:40:13;;;;;;;31.95;20.05;;;230.60;2252.80;;;;;;5135213;27;20079;-76
2021/10/31 05:42:40;;;;;;;30.95;19.73;;;230.60;2252.80;;;;;;5135413;27;20034;-77
2021/10/31 05:45:07;;;;;;;27.38;19.52;;;230.60;2252.80;;;;;;5115990;27;20081;-75
2021/10/31 05:47:36;;;;;;;23.73;17.58;;;230.70;2252.80;;;;;;5121346;27;20874;-76
2021/10/31 05:50:04;;;;;;;33.63;17.73;;;230.80;2252.80;;;;;;5123824;27;20468;-76
2021/10/31 05:52:30;;;;;;;25.20;17.23;;;230.80;2252.80;;;;;;5126092;27;20016;-76
2021/10/31 05:54:56;;;;;;;27.95;16.88;;;230.90;2252.80;;;;;;5126583;27;20030;-76
2021/10/31 05:57:21;;;;;;;26.63;17.80;;;230.90;2252.80;;;;;;5128614;27;20023;-76
2021/10/31 05:59:47;;;;;;;23.95;17.30;;;230.90;2252.80;;;;;;5123323;27;20083;-75
2021/10/31 06:02:13;;;;;;;28.35;17.73;;;230.90;2252.80;;;;;;5126378;27;20102;-75
2021/10/31 06:04:40;;;;;;;27.80;19.83;;;231.00;2252.80;;;;;;5123430;27;20153;-76
2021/10/31 06:07:06;;;;;;;25.38;17.35;;;231.10;2252.80;;;;;;5119763;27;20395;-76
2021/10/31 06:09:32;;;;;;;24.95;17.73;;;231.10;2252.80;;;;;;5125264;27;20038;-75
2021/10/31 06:11:58;;;;;;;23.73;16.02;;;231.20;2252.80;;;;;;5129109;27;20027;-76
2021/10/31 06:14:25;;;;;;;25.80;16.77;;;231.20;2252.80;;;;;;5134400;27;20021;-77
2021/10/31 06:16:51;;;;;;;25.52;16.40;;;231.30;2252.80;;;;;;5134670;27;20055;-76
2021/10/31 06:19:16;;;;;;;23.52;16.35;;;256.00;2252.80;;;;;;5134342;27;20104;-76
2021/10/31 06:21:42;;;;;;;22.15;16.38;;;256.10;2252.80;;;;;;5133090;27;20471;-76
2021/10/31 06:24:08;;;;;;;21.17;15.85;;;256.20;2252.80;;;;;;5132916;27;20551;-77
2021/10/31 06:26:34;;;;;;;25.02;16.75;;;256.30;2252.80;;;;;;5123495;27;20422;-76
2021/10/31 06:28:59;;;;;;;23.30;16.45;;;256.30;2252.80;;;;;;5120293;27;20028;-76
2021/10/31 06:31:25;;;;;;;27.77;18.17;;;256.40;2252.80;;;;;;5143350;27;20031;-76
2021/10/31 06:33:51;;;;;;;26.23;17.67;;;256.50;2252.80;;;;;;5147770;27;20008;-76
2021/10/31 06:36:16;;;;;;;21.23;15.30;;;256.60;2252.80;;;;;;5138747;27;20120;-76
2021/10/31 06:38:42;;;;;;;28.00;17.35;;;256.60;2252.80;;;;;;5129250;27;20104;-76
2021/10/31 06:41:09;;;;;;;21.95;16.23;;;256.70;2252.80;;;;;;5134847;27;20033;-76
2021/10/31 06:43:36;;;;;;;26.30;16.30;;;256.80;2252.80;;;;;;5133677;27;20031;-77
2021/10/31 06:46:02;;;;;;;24.83;16.05;;;256.90;2252.80;;;;;;5128900;27;20019;-77
2021/10/31 06:48:28;;;;;;;21.40;16.17;;;281.60;2278.40;;;;;;5131071;27;20024;-76
2021/10/31 06:50:55;;;;;;;28.38;16.15;;;281.70;2278.40;;;;;;5130432;27;20034;-75
2021/10/31 06:53:22;;;;;;;19.50;14.63;;;282.20;2278.40;;;;;;5125481;27;20502;-76
2021/10/31 06:55:48;;;;;;;23.67;15.23;;;281.90;2278.40;;;;;;5121863;27;20428;-76
2021/10/31 06:58:14;;;;;;;20.00;13.77;;;282.00;2278.40;;;;;;5125800;27;20047;-76
2021/10/31 07:00:40;;;;;;;22.63;15.35;;;282.20;2278.40;;;;;;5117586;27;20043;-75
2021/10/31 07:03:06;;;;;;;23.95;14.73;;;282.30;2278.40;;;;;;5126795;27;20080;-75
2021/10/31 07:05:32;;;;;;;21.77;13.73;;;282.40;2278.40;;;;;;5120627;27;20499;-75
2021/10/31 07:07:57;;;;;;;19.08;13.88;;;282.40;2278.40;;;;;;5122512;27;20026;-75
2021/10/31 07:10:23;;;;;;;20.70;13.80;;;307.20;2304.00;;;;;;5115808;27;20028;-75
2021/10/31 07:12:50;;;;;;;22.23;14.35;;;307.30;2304.00;;;;;;5119839;27;20806;-75
2021/10/31 07:15:15;;;;;;;17.50;13.77;;;307.40;2304.00;;;;;;5128004;27;20099;-76
2021/10/31 07:17:42;;;;;;;19.35;12.40;;;307.50;2304.00;;;;;;5125614;27;20256;-75
2021/10/31 07:20:10;;;;;;;21.20;14.35;;;307.60;2304.00;;;;;;5118636;27;20031;-76
2021/10/31 07:22:36;;;;;;;17.83;12.48;;;307.70;2304.00;;;;;;5123979;27;20032;-76
2021/10/31 07:25:03;;;;;;;18.35;13.07;;;307.80;2304.00;;;;;;5121653;27;20501;-76
2021/10/31 07:27:30;;;;;;;17.25;11.93;;;307.90;2304.00;;;;;;5120052;27;20141;-76
2021/10/31 07:29:56;;;;;;;17.00;11.57;;;308.00;2304.00;;;;;;5124202;27;20027;-76
2021/10/31 07:32:21;;;;;;;15.77;11.18;;;308.10;2304.00;;;;;;5118187;27;20031;-75
2021/10/31 07:34:47;;;;;;;18.10;11.80;;;332.80;2329.60;;;;;;5125558;27;20479;-75
2021/10/31 07:37:13;;;;;;;17.55;11.90;;;332.90;2329.60;;;;;;5119356;28;20016;-75
2021/10/31 07:39:40;;;;;;;19.88;12.98;;;333.00;2329.60;;;;;;5121549;27;20499;-76
2021/10/31 07:42:06;;;;;;;16.23;12.00;;;333.10;2329.60;;;;;;5121233;28;20080;-76
2021/10/31 07:44:32;;;;;;;18.88;12.52;;;333.20;2329.60;;;;;;5122333;27;20425;-77
2021/10/31 07:46:58;;;;;;;18.65;11.10;;;333.30;2329.60;;;;;;5122520;27;20077;-76
2021/10/31 07:49:24;;;;;;;17.10;10.82;;;333.50;2329.60;;;;;;5121902;28;20039;-76
2021/10/31 07:51:51;;;;;;;16.73;11.68;;;333.60;2329.60;;;;;;5124183;27;20023;-76
2021/10/31 07:54:21;;;;;;;17.55;11.23;;;358.40;2329.60;;;;;;5122568;28;20019;-75
2021/10/31 07:56:48;;;;;;;17.30;11.63;;;358.60;2329.60;;;;;;5122443;28;20022;-76
2021/10/31 07:59:14;;;;;;;15.13;11.23;;;358.70;2329.60;;;;;;5124082;27;20530;-75
2021/10/31 08:01:40;;;;;;;18.85;11.25;;;358.90;2329.60;;;;;;5120393;28;20031;-75
2021/10/31 08:04:06;;;;;;;19.38;13.43;;;359.10;2329.60;;;;;;5119120;28;20023;-75
2021/10/31 08:06:31;;;;;;;17.65;12.30;;;384.00;2329.60;;;;;;5127725;27;20081;-75
2021/10/31 08:08:57;;;;;;;15.15;10.95;;;384.20;2329.60;;;;;;5123058;28;20077;-75
2021/10/31 08:11:23;;;;;;;15.18;10.85;;;384.30;2329.60;;;;;;5126356;27;20395;-76
2021/10/31 08:13:49;;;;;;;14.20;11.13;;;384.40;2329.60;;;;;;5122671;27;20024;-75
2021/10/31 08:16:16;;;;;;;19.05;11.55;;;384.60;2329.60;;;;;;5123604;28;20083;-76
2021/10/31 08:18:42;;;;;;;18.67;11.88;;;409.60;2355.20;;;;;;5121134;27;20118;-75
2021/10/31 08:21:09;;;;;;;15.40;10.45;;;409.90;2355.20;;;;;;5125294;27;20158;-77
2021/10/31 08:23:36;;;;;;;15.98;11.35;;;410.20;2355.20;;;;;;5127628;27;20035;-76
2021/10/31 08:26:02;;;;;;;18.42;12.73;;;410.20;2355.20;;;;;;5128188;27;20113;-77
2021/10/31 08:28:28;;;;;;;16.65;11.63;;;410.40;2355.20;;;;;;5127471;27;20461;-76
2021/10/31 08:30:58;;;;;;;16.25;10.48;;;435.20;2355.20;;;;;;5126190;27;20789;-76
2021/10/31 08:33:27;;;;;;;15.45;10.93;;;435.40;2355.20;;;;;;5131438;27;20536;-76
2021/10/31 08:35:54;;;;;;;14.52;9.48;;;435.70;2355.20;;;;;;5126179;27;20020;-76
2021/10/31 08:38:20;;;;;;;14.68;10.38;;;435.80;2355.20;;;;;;5123459;27;20105;-76
2021/10/31 08:40:48;;;;;;;17.35;10.65;;;435.90;2355.20;;;;;;5126756;27;20102;-76
2021/10/31 08:43:14;;;;;;;14.65;11.77;;;436.00;2355.20;;;;;;5129284;27;20386;-76
2021/10/31 08:45:41;;;;;;;15.18;10.07;;;460.80;2380.80;;;;;;5130343;27;20030;-76
2021/10/31 08:48:08;;;;;;;12.07;9.63;;;460.90;2380.80;;;;;;5128149;27;20368;-76
2021/10/31 08:50:34;;;;;;;13.13;9.23;;;461.10;2380.80;;;;;;5126107;27;20122;-76
2021/10/31 08:53:00;;;;;;;20.27;10.48;;;461.10;2380.80;;;;;;5125276;27;20209;-76
2021/10/31 08:55:26;;;;;;;16.90;9.93;;;461.10;2380.80;;;;;;5122814;27;20077;-76
2021/10/31 08:57:52;;;;;;;13.90;9.73;;;461.40;2380.80;;;;;;5124596;27;20026;-77
2021/10/31 09:00:18;;;;;;;18.52;11.85;;;461.60;2380.80;;;;;;5128510;27;20026;-76
2021/10/31 09:02:44;;;;;;;14.80;9.32;;;461.60;2380.80;;;;;;5122896;27;20066;-77
2021/10/31 09:05:11;;;;;;;16.25;10.13;;;461.70;2380.80;;;;;;5123129;27;20034;-76
2021/10/31 09:07:37;;;;;;;12.93;9.57;;;486.50;2380.80;;;;;;5122789;27;20027;-76
2021/10/31 09:10:03;;;;;;;12.55;10.15;;;486.60;2380.80;;;;;;5123481;27;20368;-77
2021/10/31 09:12:29;;;;;;;13.30;9.32;;;486.70;2380.80;;;;;;5122161;27;20023;-77
2021/10/31 09:14:56;;;;;;;11.80;7.80;;;486.80;2380.80;;;;;;5123337;27;20036;-77
2021/10/31 09:17:22;;;;;;;13.18;9.27;;;486.90;2380.80;;;;;;5129018;27;20077;-77
2021/10/31 09:19:48;;;;;;;12.77;8.38;;;487.10;2380.80;;;;;;5125733;27;20515;-76
2021/10/31 09:22:14;;;;;;;12.48;8.48;;;512.10;2304.00;;;;;;5131427;27;20023;-77
2021/10/31 09:24:40;;;;;;;12.80;9.70;;;512.20;2252.80;;;;;;5123146;27;20521;-76
2021/10/31 09:27:06;;;;;;;13.52;9.40;;;512.20;2227.20;;;;;;5123069;27;20027;-76
2021/10/31 09:29:32;;;;;;;15.20;10.43;;;512.20;2201.60;;;;;;5122999;27;20028;-77
2021/10/31 09:31:59;;;;;;;15.73;9.85;;;512.40;2176.00;;;;;;5124614;27;20040;-77
2021/10/31 09:34:28;;;;;;;11.35;8.85;;;512.60;2150.40;;;;;;5131086;27;20023;-77
2021/10/31 09:36:54;;;;;;;11.13;8.82;;;537.60;2124.80;;;;;;5126765;27;20031;-76
2021/10/31 09:39:20;;;;;;;14.02;8.70;;;512.80;2073.60;;;;;;5129069;27;20471;-76
2021/10/31 09:41:46;;;;;;;12.55;8.35;;;537.70;2048.00;;;;;;5124034;27;20081;-76
2021/10/31 09:44:26;;;;;;;11.38;8.57;;;538.10;1996.80;;;;;;5116596;27;20032;-77
2021/10/31 09:46:52;;;;;;;17.42;8.65;;;538.10;1996.80;;;;;;5129637;27;20092;-77
2021/10/31 09:49:18;;;;;;;10.32;6.82;;;538.30;1971.20;;;;;;5126089;27;20035;-78
2021/10/31 09:51:49;;;;;;;12.32;7.22;;;538.40;1945.60;;;;;;5131487;27;20035;-76
2021/10/31 09:54:15;;;;;;;9.38;7.22;;;563.40;1945.60;;;;;;5130620;27;20493;-76
2021/10/31 09:56:42;;;;;;;10.40;6.95;;;563.30;1920.00;;;;;;5124422;27;20023;-77
2021/10/31 09:59:13;;;;;;;10.25;7.60;;;563.30;1894.40;;;;;;5124243;27;20053;-77
2021/10/31 10:02:11;;;;;;;9.63;7.53;;;563.70;1843.20;;;;;;5124372;27;20122;-77
2021/10/31 10:04:48;;;;;;;10.02;6.78;;;563.40;1843.20;;;;;;5133448;27;20466;-77
2021/10/31 10:07:15;;;;;;;14.07;7.70;;;563.80;1817.60;;;;;;5134343;27;20126;-77
2021/10/31 10:09:53;;;;;;;11.73;8.75;;;563.90;1792.00;;;;;;5120085;27;20052;-77
2021/10/31 10:12:20;;;;;;;11.48;7.88;;;588.80;1740.80;;;;;;5123375;27;20034;-76
2021/10/31 10:15:10;;;;;;;13.68;7.18;;;589.10;1740.80;;;;;;5131023;27;20475;-77
2021/10/31 10:17:52;;;;;;;12.45;7.00;;;589.10;1715.20;;;;;;5124785;27;20023;-77
2021/10/31 10:20:20;;;;;;;11.40;7.13;;;588.80;1689.60;;;;;;5129818;27;20035;-76
2021/10/31 10:22:47;;;;;;;11.05;8.00;;;589.00;1689.60;;;;;;5133184;27;20019;-76
2021/10/31 10:25:15;;;;;;;13.07;7.85;;;588.80;1689.60;;;;;;5130953;27;20023;-77
2021/10/31 10:27:53;;;;;;;10.68;7.15;;;589.30;1664.00;;;;;;5119580;27;20391;-77
2021/10/31 10:30:21;;;;;;;11.57;7.88;;;589.50;1664.00;;;;;;5131048;27;20027;-76
2021/10/31 10:32:53;;;;;;;10.20;6.90;;;589.70;1612.80;;;;;;5124414;27;20027;-76
2021/10/31 10:35:21;;;;;;;10.40;7.50;;;589.20;1638.40;;;;;;5120116;27;20031;-77
2021/10/31 10:37:49;;;;;;;13.85;7.68;;;589.30;1638.40;;;;;;5115437;27;20015;-76
2021/10/31 10:40:24;;;;;;;10.23;7.55;;;589.50;1612.80;;;;;;5126180;27;20034;-76
2021/10/31 10:42:52;;;;;;;9.40;6.43;;;589.70;1587.20;;;;;;5123860;27;20118;-76
2021/10/31 10:45:27;;;;;;;12.07;8.13;;;589.70;1587.20;;;;;;5122439;27;20114;-76
2021/10/31 10:47:57;;;;;;;12.43;7.05;;;614.60;1561.60;;;;;;5124689;27;20392;-77
2021/10/31 10:50:26;;;;;;;17.08;7.18;;;615.00;1510.40;;;;;;5117919;27;20039;-77
2021/10/31 10:52:54;;;;;;;9.45;6.95;;;615.00;1510.40;;;;;;5124903;27;20098;-76
2021/10/31 10:55:28;;;;;;;12.30;8.23;;;614.90;1484.80;;;;;;5119517;27;20027;-77
2021/10/31 10:58:07;;;;;;;16.25;10.18;;;615.20;1484.80;;;;;;5120672;27;20031;-77
2021/10/31 11:00:40;;;;;;;14.32;8.70;;;615.10;1459.20;;;;;;5113970;27;20034;-77
2021/10/31 11:03:13;;;;;;;15.20;9.63;;;614.80;1459.20;;;;;;5114060;27;20027;-76
2021/10/31 11:05:40;;;;;;;10.45;7.45;;;615.10;1484.80;;;;;;5118043;27;20027;-76
2021/10/31 11:08:13;;;;;;;19.55;10.18;;;615.00;1484.80;;;;;;5119644;27;20495;-76
2021/10/31 11:10:47;;;;;;;19.10;9.50;;;640.30;1433.60;;;;;;5128933;27;20031;-77
2021/10/31 11:13:13;;;;;;;18.27;9.57;;;640.10;1433.60;;;;;;5124156;27;20395;-79
2021/10/31 11:15:39;;;;;;;17.38;9.35;;;640.20;1433.60;;;;;;5129372;27;20468;-77
2021/10/31 11:18:07;;;;;;;12.43;8.38;;;640.00;1408.00;;;;;;5123304;27;20559;-76
2021/10/31 11:20:39;;;;;;;13.75;8.68;;;640.00;1408.00;;;;;;5117470;27;20157;-76
2021/10/31 11:23:12;;;;;;;11.73;7.13;;;640.10;1408.00;;;;;;5121957;27;20043;-77
2021/10/31 11:25:42;;;;;;;15.82;8.98;;;640.00;1408.00;;;;;;5125795;27;20467;-76
2021/10/31 11:28:12;;;;;;;18.30;10.00;;;640.30;1382.40;;;;;;5120074;27;20808;-77
2021/10/31 11:30:38;;;;;;;13.02;8.35;;;640.00;1408.00;;;;;;5123784;27;20027;-77
2021/10/31 11:33:06;;;;;;;14.88;8.20;;;640.10;1408.00;;;;;;5123864;27;20023;-77
2021/10/31 11:35:34;;;;;;;7.57;6.60;;;640.40;1382.40;;;;;;5120143;28;20023;-77
2021/10/31 11:38:15;;;;;;;8.90;7.35;;;640.30;1382.40;;;;;;5128060;28;20011;-77
2021/10/31 11:41:15;;;;;;;11.68;7.93;;;640.30;1382.40;;;;;;5132713;28;20102;-76
2021/10/31 11:43:51;;;;;;;9.43;7.30;;;640.10;1382.40;;;;;;5067359;28;20129;-77
2021/10/31 11:46:16;;;;;;;12.35;8.85;;;640.20;1382.40;;;;;;5045781;28;20056;-76
2021/10/31 11:48:59;;;;;;;14.55;7.80;;;640.40;1356.80;;;;;;5060938;28;20067;-76
2021/10/31 11:51:45;;;;;;;16.75;9.15;;;640.40;1356.80;;;;;;5067779;28;20074;-77
2021/10/31 11:54:13;;;;;;;16.52;10.15;;;640.50;1356.80;;;;;;5047817;28;20033;-77
2021/10/31 11:56:51;;;;;;;10.55;7.05;;;640.60;1356.80;;;;;;5050494;28;20029;-77
2021/10/31 11:59:18;;;;;;;8.75;6.65;;;640.40;1356.80;;;;;;5052956;28;20066;-77
2021/10/31 12:01:59;;;;;;;10.95;7.43;;;640.40;1356.80;;;;;;5054281;28;20102;-77
2021/10/31 12:07:40;;;;;;;15.85;7.20;;;640.70;1331.20;;;;;;5066584;28;20040;-77
2021/10/31 12:10:24;;;;;;;13.65;10.45;;;640.60;1331.20;;;;;;5065388;28;20520;-77
2021/10/31 12:13:10;;;;;;;14.07;10.70;;;640.50;1331.20;;;;;;5054165;28;20032;-76